Skip Navigation Links
NOAA logo - Click to go to the NOAA homepage
NOAA's National Weather Service
Alaska Aviation Weather Unit
  NWS logo - Click to go to the NWS homepage
Left Navbar Graphic     00 AKDT = 08 GMT

   
NOAA is celebrating 200 years of science, service, and stewardship. Visit the NOAA 200th celebration Web site to learn more.
USA.gov is the U.S. Government's official Web portal to all Federal, state and local government Web resources and services.
Facebook
NWS on Facebook

Important Change Regarding the AAWU Web Presence

 

Over the last several months, the AAWU has been working to navigate its webpages to a nationally supported server. Security, as well as other needs, have necessitated the change.  We have been given an extension for the site changeover while we diligently work at addressing feedback received. As of July 14, 2017, aawu.arh.noaa.gov will be discontinued. The new AAWU web address is weather.gov/aawu. It is now live and will run in-parallel with the old site until it is discontinued on July 14, 2017. Please continue to send any feedback or questions regarding the new webpages to nws.ar.aawu.webauthors@noaa.gov.  Thank you for your patience during this time of transition.
AAWU Home :: Display TAF Add Bookmark
TAF PAHN 240606Z 2406/2506  12003KT 3SM -RA BR OVC005
      TEMPO 2406/2410 OVC004
     FM241600 11014G22KT 3SM -SHRA BR BKN010 OVC025
     FM241900 11014G22KT 6SM -SHRA BR BKN015 OVC030
     FM250500 11010KT 6SM BR VCSH FEW005 OVC025
      AMD LTD TO CLD VIS AND WIND=



SPECI PAHN 240245Z AUTO 11003KT 2 1/2SM -RA BR OVC035 11/11 A2973 RMK AO2 RAB20 P0000 T01060106 TSNO= METAR PAHN 240254Z AUTO 10003KT 2SM -RA BR FEW005 OVC034 11/11 A2973 RMK AO2 RAB20 SLP068 P0000 60000 T01060106 56013 TSNO= SPECI PAHN 240341Z AUTO 09003KT 2SM -RA BR BKN006 OVC028 11/11 A2972 RMK AO2 P0002 T01110111 TSNO= METAR PAHN 240354Z AUTO 00000KT 2 1/2SM -RA BR OVC005 11/11 A2972 RMK AO2 SLP066 P0002 T01110111 TSNO= SPECI PAHN 240411Z AUTO 13003KT 3SM -RA BR OVC004 11/11 A2972 RMK AO2 P0001 T01110106 TSNO= SPECI PAHN 240434Z AUTO 00000KT 2 1/2SM -RA BR OVC004 11/11 A2972 RMK AO2 P0002 T01060106 TSNO= SPECI PAHN 240445Z AUTO 00000KT 3SM -RA BR OVC004 11/11 A2972 RMK AO2 P0002 T01060106 TSNO= METAR PAHN 240454Z AUTO 00000KT 3SM -RA BR OVC003 11/11 A2971 RMK AO2 SLP064 P0002 T01060106 TSNO= SPECI PAHN 240526Z AUTO 00000KT 4SM BR BKN005 OVC009 11/11 A2971 RMK AO2 RAE0457 P0001 T01060106 TSNO= SPECI PAHN 240536Z AUTO 00000KT 4SM BR OVC004 11/11 A2971 RMK AO2 RAE0457 P0001 T01060106 TSNO= METAR PAHN 240554Z AUTO 00000KT 3SM -RA BR OVC004 11/11 A2971 RMK AO2 RAE0457B44 SLP062 P0001 60005 T01060106 10128 20106 57006 TSNO= SPECI PAHN 240604Z AUTO 00000KT 2SM BR OVC004 10/10 A2971 RMK AO2 RAE03 P0001 T01000100 TSNO= SPECI PAHN 240640Z AUTO 00000KT 3SM BR OVC003 11/10 A2971 RMK AO2 RAE03 P0001 T01060100 TSNO= METAR PAHN 240654Z AUTO 00000KT 3SM -RA BR OVC003 10/10 A2971 RMK AO2 RAE03B54 SLP062 P0002 T01000100 TSNO= SPECI PAHN 240713Z AUTO 00000KT 3SM -RA BR OVC005 11/10 A2970 RMK AO2 P0000 T01060100 TSNO= METAR PAHN 240754Z AUTO 00000KT 2 1/2SM BR OVC006 11/11 A2970 RMK AO2 RAE15 SLP061 P0001 T01060106 TSNO=
 Alaska TAF Map

NOAA's National Weather Service
Alaska Aviation Weather Unit
6930 Sand Lake Road
Anchorage, AK 99502-1845
Disclaimer
Credits
Glossary
Privacy Policy
About Us
Career Opportunities
Contact AAWU Internet Services Site last modified: April, 17th 2012